Погода Л’Аквилана неделю

Абруццо, Италия

31 августа-06 сентября
  • 31августа
    Сегодня
    +16°
    +35°
    Ясно и безоблачно
    ВремяПогодаТемператураВлажностьДавлениеВетер, м/сВероятность осадков
    02:00Ясно и безоблачно+22°C67 %705 мм0.1 м/с2 %
    05:00Ясно и безоблачно+20°C76 %704 мм0.1 м/с2 %
    08:00Ясно и безоблачно+20°C75 %705 мм0.4 м/с2 %
    11:00Ясно и безоблачно+30°C35 %706 мм1.2 м/с2 %
    14:00Ясно и безоблачно+34°C23 %706 мм3.5 м/с12 %
    17:00Ясно и безоблачно+34°C26 %705 мм4.8 м/с15 %
    20:00Ясно и безоблачно+28°C40 %705 мм1.7 м/с4 %
    23:00Ясно и безоблачно+23°C53 %706 мм0.5 м/с2 %
  • 01сентября
    Вторник
    +16°
    +35°
    Ясно и безоблачно
    ВремяПогодаТемператураВлажностьДавлениеВетер, м/сВероятность осадков
    02:00Ясно и безоблачно+20°C62 %706 мм0.2 м/с2 %
    05:00Ясно и безоблачно+18°C72 %706 мм0.2 м/с2 %
    08:00Ясно и безоблачно+18°C66 %706 мм0.7 м/с2 %
    11:00Ясно и безоблачно+29°C34 %708 мм0.7 м/с2 %
    14:00Ясно и безоблачно+34°C20 %708 мм2.6 м/с6 %
    17:00Ясно и безоблачно+33°C20 %707 мм4.5 м/с11 %
    20:00Ясно и безоблачно+27°C26 %707 мм1.2 м/с2 %
    23:00Ясно и безоблачно+22°C36 %707 мм0.2 м/с2 %
  • 02сентября
    Среда
    +15°
    +33°
    Ясно и безоблачно
    ВремяПогодаТемператураВлажностьДавлениеВетер, м/сВероятность осадков
    02:00Ясно и безоблачно+19°C43 %706 мм0.2 м/с2 %
    05:00Небольшая облачность+17°C50 %706 мм0.3 м/с2 %
    08:00Облачно с прояснениями+17°C49 %706 мм1.8 м/с2 %
    11:00Практически безоблачно+29°C27 %708 мм1.7 м/с2 %
    14:00Ясно и безоблачно+33°C22 %708 мм3.9 м/с2 %
    17:00Практически безоблачно+32°C28 %707 мм4.7 м/с22 %
    20:00Ясно и безоблачно+27°C40 %707 мм2.1 м/с18 %
    23:00Ясно и безоблачно+22°C58 %707 мм0.4 м/с2 %
  • 03сентября
    Четверг
    +15°
    +32°
    Ясно и безоблачно
    ВремяПогодаТемператураВлажностьДавлениеВетер, м/сВероятность осадков
    02:00Ясно и безоблачно+19°C69 %706 мм0.1 м/с2 %
    05:00Ясно и безоблачно+17°C75 %705 мм0.1 м/с2 %
    08:00Ясно и безоблачно+18°C63 %706 мм0.6 м/с2 %
    11:00Практически безоблачно+28°C40 %708 мм1.3 м/с8 %
    14:00Ясно и безоблачно+31°C34 %708 мм2.8 м/с23 %
    17:00Ясно и безоблачно+31°C36 %707 мм3.5 м/с24 %
    20:00Ясно и безоблачно+26°C54 %707 мм1.4 м/с11 %
    23:00Ясно и безоблачно+21°C78 %708 мм0.7 м/с2 %
  • 04сентября
    Пятница
    +17°
    +33°
    Ясно и безоблачно
    ВремяПогодаТемператураВлажностьДавлениеВетер, м/сВероятность осадков
    02:00Ясно и безоблачно+18°C92 %708 мм0.5 м/с2 %
    05:00Ясно и безоблачно+16°C90 %707 мм0.6 м/с2 %
    08:00Ясно и безоблачно+17°C72 %708 мм1.0 м/с2 %
    11:00Ясно и безоблачно+28°C27 %710 мм2.1 м/с2 %
    14:00Ясно и безоблачно+32°C22 %709 мм1.2 м/с2 %
    17:00Ясно и безоблачно+32°C22 %708 мм1.6 м/с2 %
    20:00Ясно и безоблачно+28°C38 %708 мм0.7 м/с2 %
    23:00Ясно и безоблачно+23°C51 %709 мм0.1 м/с2 %
  • 05сентября
    Суббота
    +19°
    +35°
    Ясно и безоблачно
    ВремяПогодаТемператураВлажностьДавлениеВетер, м/сВероятность осадков
    02:00Ясно и безоблачно+20°C69 %709 мм0.1 м/с2 %
    08:00Ясно и безоблачно+18°C63 %709 мм0.4 м/с2 %
    14:00Ясно и безоблачно+33°C23 %710 мм1.9 м/с2 %
    20:00Ясно и безоблачно+28°C41 %710 мм1.2 м/с2 %
  • 06сентября
    Воскресенье
    +19°
    +35°
    Практически безоблачно
    ВремяПогодаТемператураВлажностьДавлениеВетер, м/сВероятность осадков
    02:00Ясно и безоблачно+22°C58 %709 мм1.0 м/с2 %
    08:00Ясно и безоблачно+20°C56 %709 мм0.9 м/с2 %
    14:00Практически безоблачно+34°C24 %711 мм1.6 м/с2 %
    20:00Ясно и безоблачно+30°C38 %710 мм1.0 м/с6 %
Мы используем cookies
Соглашаюсь